createdAt,value
2019-03-10T00:00:37.839Z,11.07
2019-03-10T00:03:07.283Z,11.04
2019-03-10T00:05:36.716Z,11.03
2019-03-10T00:08:08.005Z,11.02
2019-03-10T00:10:37.395Z,11.01
2019-03-10T00:13:06.838Z,11.02
2019-03-10T00:15:36.275Z,11.01
2019-03-10T00:18:05.776Z,11.01
2019-03-10T00:20:35.226Z,11.01
2019-03-10T00:23:04.667Z,11.00
2019-03-10T00:25:34.119Z,10.97
2019-03-10T00:28:03.555Z,10.97
2019-03-10T00:30:32.990Z,10.95
2019-03-10T00:33:02.440Z,10.96
2019-03-10T00:35:31.888Z,10.97
2019-03-10T00:38:01.331Z,10.96
2019-03-10T00:40:56.386Z,10.96
2019-03-10T00:43:57.415Z,10.95
2019-03-10T00:46:49.559Z,10.93
2019-03-10T00:49:56.281Z,10.98
2019-03-10T00:52:30.432Z,10.96
2019-03-10T00:54:59.868Z,10.93
2019-03-10T00:57:29.321Z,10.93
2019-03-10T01:00:00.551Z,10.92
2019-03-10T01:02:29.939Z,10.92
2019-03-10T01:04:59.373Z,10.91
2019-03-10T01:07:28.826Z,10.91
2019-03-10T01:09:58.264Z,10.89
2019-03-10T01:12:27.885Z,10.88
2019-03-10T01:14:57.319Z,10.86
2019-03-10T01:17:27.807Z,10.84
2019-03-10T01:19:57.584Z,10.88
2019-03-10T01:22:27.504Z,10.91
2019-03-10T01:24:56.934Z,10.86
2019-03-10T01:27:26.376Z,10.88
2019-03-10T01:29:55.812Z,10.82
2019-03-10T01:33:01.564Z,10.76
2019-03-10T01:35:32.211Z,10.82
2019-03-10T01:38:01.661Z,10.82
2019-03-10T01:40:31.100Z,10.76
2019-03-10T01:43:00.558Z,10.75
2019-03-10T01:45:30.055Z,10.75
2019-03-10T01:48:02.213Z,10.74
2019-03-10T01:50:31.637Z,10.75
2019-03-10T01:53:01.091Z,10.73
2019-03-10T01:55:30.541Z,10.76
2019-03-10T01:57:59.984Z,10.70
2019-03-10T02:00:29.422Z,10.70
2019-03-10T02:02:58.883Z,10.73
2019-03-10T02:05:28.313Z,10.70
2019-03-10T02:07:57.766Z,10.71
2019-03-10T02:10:27.195Z,10.71
2019-03-10T02:12:56.641Z,10.69
2019-03-10T02:15:26.076Z,10.70
2019-03-10T02:17:55.526Z,10.71
2019-03-10T02:20:25.040Z,10.67
2019-03-10T02:22:54.473Z,10.59
2019-03-10T02:25:23.912Z,10.66
2019-03-10T02:27:53.360Z,10.48
2019-03-10T02:30:22.860Z,10.39
2019-03-10T02:32:52.316Z,10.31
2019-03-10T02:35:21.750Z,10.26
2019-03-10T02:37:51.202Z,10.23
2019-03-10T02:40:20.641Z,10.16
2019-03-10T02:42:50.090Z,10.12
2019-03-10T02:45:19.523Z,10.09
2019-03-10T02:47:48.978Z,10.03
2019-03-10T02:50:18.470Z,10.05
2019-03-10T02:52:47.949Z,10.05
2019-03-10T02:55:17.381Z,10.08
2019-03-10T02:57:46.829Z,10.15
2019-03-10T03:00:16.906Z,10.12
2019-03-10T03:02:46.354Z,10.12
2019-03-10T03:05:15.793Z,10.16
2019-03-10T03:07:45.241Z,10.17
2019-03-10T03:10:15.280Z,10.18
2019-03-10T03:12:44.733Z,10.19
2019-03-10T03:15:14.238Z,10.19
2019-03-10T03:17:43.684Z,10.20
2019-03-10T03:20:14.068Z,10.25
2019-03-10T03:22:43.583Z,10.45
2019-03-10T03:25:14.958Z,10.42
2019-03-10T03:27:44.430Z,10.45
2019-03-10T03:30:18.901Z,10.54
2019-03-10T03:32:48.469Z,10.56
2019-03-10T03:35:46.718Z,10.46
2019-03-10T03:38:28.952Z,10.39
2019-03-10T03:41:11.191Z,10.36
2019-03-10T03:43:42.485Z,10.32
2019-03-10T03:46:11.948Z,10.28
2019-03-10T03:48:41.513Z,10.35
2019-03-10T03:51:10.990Z,10.16
2019-03-10T03:53:40.427Z,10.12
2019-03-10T03:56:09.866Z,10.05
2019-03-10T03:58:39.368Z,10.05
2019-03-10T04:01:13.453Z,9.98
2019-03-10T04:03:42.898Z,9.92
2019-03-10T04:06:12.711Z,9.94
2019-03-10T04:08:42.331Z,9.91
2019-03-10T04:11:11.793Z,9.80
2019-03-10T04:13:41.252Z,9.75
2019-03-10T04:16:10.682Z,9.67
2019-03-10T04:18:40.120Z,9.73
2019-03-10T04:21:09.547Z,9.62
2019-03-10T04:23:38.986Z,9.60
2019-03-10T04:26:08.429Z,9.52
2019-03-10T04:28:37.865Z,9.56
2019-03-10T04:31:07.296Z,9.58
2019-03-10T04:33:36.727Z,9.50
2019-03-10T04:36:06.456Z,9.43
2019-03-10T04:38:35.960Z,9.46
2019-03-10T04:41:05.678Z,9.41
2019-03-10T04:43:35.126Z,9.38
2019-03-10T04:46:04.645Z,9.43
2019-03-10T04:48:34.139Z,9.48
2019-03-10T04:51:05.225Z,9.48
2019-03-10T04:53:34.604Z,9.50
2019-03-10T04:56:05.690Z,9.53
2019-03-10T04:58:36.801Z,9.53
2019-03-10T05:01:06.209Z,9.44
2019-03-10T05:03:36.115Z,9.42
2019-03-10T05:06:05.561Z,9.38
2019-03-10T05:08:34.991Z,9.38
2019-03-10T05:11:04.433Z,9.34
2019-03-10T05:13:33.864Z,9.36
2019-03-10T05:16:03.303Z,9.34
2019-03-10T05:18:32.739Z,9.28
2019-03-10T05:21:02.178Z,9.31
2019-03-10T05:23:40.430Z,9.27
2019-03-10T05:26:09.877Z,9.19
2019-03-10T05:28:43.215Z,9.14
2019-03-10T05:31:12.737Z,9.12
2019-03-10T05:33:42.157Z,9.12
2019-03-10T05:36:11.606Z,9.11
2019-03-10T05:38:41.043Z,9.11
2019-03-10T05:41:10.486Z,8.98
2019-03-10T05:43:39.919Z,9.05
2019-03-10T05:46:09.360Z,9.00
2019-03-10T05:48:38.795Z,8.96
2019-03-10T05:51:08.242Z,8.93
2019-03-10T05:53:37.683Z,8.91
2019-03-10T05:56:07.132Z,8.94
2019-03-10T05:58:36.569Z,8.93
2019-03-10T06:01:06.083Z,8.89
2019-03-10T06:03:35.520Z,8.94
2019-03-10T06:06:04.964Z,8.89
2019-03-10T06:08:34.391Z,8.89
2019-03-10T06:11:03.832Z,8.85
2019-03-10T06:13:33.268Z,8.80
2019-03-10T06:16:02.718Z,8.87
2019-03-10T06:18:32.159Z,8.85
2019-03-10T06:21:01.602Z,8.82
2019-03-10T06:23:31.033Z,8.92
2019-03-10T06:26:00.479Z,8.93
2019-03-10T06:28:29.976Z,8.81
2019-03-10T06:30:59.421Z,8.75
2019-03-10T06:33:28.849Z,8.75
2019-03-10T06:35:58.290Z,8.73
2019-03-10T06:38:27.726Z,8.72
2019-03-10T06:40:57.167Z,8.73
2019-03-10T06:43:26.602Z,8.74
2019-03-10T06:45:56.040Z,8.78
2019-03-10T06:48:25.468Z,8.74
2019-03-10T06:50:54.909Z,8.76
2019-03-10T06:53:24.343Z,8.79
2019-03-10T06:55:53.792Z,8.88
2019-03-10T06:58:23.230Z,8.91
2019-03-10T07:00:52.671Z,8.97
2019-03-10T07:03:22.119Z,9.01
2019-03-10T07:05:51.554Z,9.01
2019-03-10T07:08:21.826Z,9.01
2019-03-10T07:10:51.255Z,9.03
2019-03-10T07:13:20.679Z,9.04
2019-03-10T07:15:50.120Z,9.07
2019-03-10T07:18:19.551Z,9.12
2019-03-10T07:20:49.002Z,9.10
2019-03-10T07:23:19.107Z,9.12
2019-03-10T07:25:50.198Z,9.17
2019-03-10T07:28:21.273Z,9.19
2019-03-10T07:30:52.360Z,9.23
2019-03-10T07:33:26.266Z,9.26
2019-03-10T07:35:58.475Z,9.27
2019-03-10T07:38:41.568Z,9.23
2019-03-10T07:41:10.779Z,9.26
2019-03-10T07:43:44.501Z,9.25
2019-03-10T07:46:21.557Z,9.33
2019-03-10T07:48:55.592Z,9.31
2019-03-10T07:51:26.676Z,9.31
2019-03-10T07:54:14.003Z,9.37
2019-03-10T07:56:51.089Z,9.34
2019-03-10T07:59:40.178Z,9.39
2019-03-10T08:02:27.450Z,9.38
2019-03-10T08:05:10.377Z,9.38
2019-03-10T08:07:53.103Z,9.42
2019-03-10T08:10:32.734Z,9.47
2019-03-10T08:13:07.008Z,9.54
2019-03-10T08:15:44.990Z,9.57
2019-03-10T08:18:16.629Z,9.73
2019-03-10T08:20:50.806Z,9.79
2019-03-10T08:23:26.178Z,9.93
2019-03-10T08:25:59.921Z,10.02
2019-03-10T08:28:46.001Z,10.31
2019-03-10T08:31:33.224Z,10.40
2019-03-10T08:34:04.307Z,10.53
2019-03-10T08:36:41.181Z,10.80
2019-03-10T08:39:21.234Z,10.91
2019-03-10T08:41:50.456Z,10.96
2019-03-10T08:44:24.486Z,10.94
2019-03-10T08:47:01.505Z,11.13
2019-03-10T08:49:32.585Z,11.21
2019-03-10T08:52:18.384Z,11.26
2019-03-10T08:54:52.118Z,11.33
2019-03-10T08:57:24.268Z,11.38
2019-03-10T09:00:13.105Z,11.45
2019-03-10T09:02:44.199Z,11.47
2019-03-10T09:05:15.280Z,11.54
2019-03-10T09:07:52.048Z,11.54
2019-03-10T09:10:30.107Z,11.57
2019-03-10T09:13:03.838Z,11.77
2019-03-10T09:15:41.548Z,11.77
2019-03-10T09:18:18.196Z,11.79
2019-03-10T09:20:54.963Z,11.81
2019-03-10T09:23:35.027Z,11.80
2019-03-10T09:26:15.023Z,11.81
2019-03-10T09:28:52.180Z,11.81
2019-03-10T09:31:35.109Z,11.88
2019-03-10T09:34:04.319Z,12.01
2019-03-10T09:36:51.229Z,11.95
2019-03-10T09:39:20.454Z,11.98
2019-03-10T09:41:54.177Z,11.98
2019-03-10T09:44:41.582Z,12.00
2019-03-10T09:47:16.698Z,12.07
2019-03-10T09:49:53.973Z,12.15
2019-03-10T09:52:41.133Z,12.14
2019-03-10T09:55:29.992Z,12.10
2019-03-10T09:58:18.550Z,12.09
2019-03-10T10:00:50.706Z,12.07
2019-03-10T10:03:27.735Z,12.08
2019-03-10T10:05:58.816Z,12.10
2019-03-10T10:08:45.516Z,12.12
2019-03-10T10:11:16.538Z,12.09
2019-03-10T10:13:47.648Z,12.09
2019-03-10T10:16:27.641Z,12.07
2019-03-10T10:19:01.782Z,12.11
2019-03-10T10:21:48.958Z,12.19
2019-03-10T10:24:20.050Z,12.15
2019-03-10T10:26:51.126Z,12.17
2019-03-10T10:29:24.619Z,12.20
2019-03-10T10:32:11.706Z,12.24
2019-03-10T10:34:48.575Z,12.28
2019-03-10T10:37:19.645Z,12.37
2019-03-10T10:39:56.378Z,12.47
2019-03-10T10:42:43.478Z,12.48
2019-03-10T10:45:14.636Z,12.53
2019-03-10T10:47:57.949Z,12.52
2019-03-10T10:50:29.051Z,12.57
2019-03-10T10:53:16.229Z,12.56
2019-03-10T10:55:47.307Z,12.68
2019-03-10T10:58:34.600Z,12.67
2019-03-10T11:01:21.967Z,12.67
2019-03-10T11:03:56.037Z,12.58
2019-03-10T11:06:31.274Z,12.65
2019-03-10T11:09:10.949Z,12.62
2019-03-10T11:11:58.247Z,12.63
2019-03-10T11:14:34.881Z,12.66
2019-03-10T11:17:23.723Z,12.74
2019-03-10T11:19:57.607Z,12.76
2019-03-10T11:22:28.683Z,12.92
2019-03-10T11:25:02.484Z,12.97
2019-03-10T11:27:48.277Z,13.17
2019-03-10T11:30:35.525Z,13.10
2019-03-10T11:33:10.239Z,13.10
2019-03-10T11:35:57.437Z,13.16
2019-03-10T11:38:37.397Z,13.18
2019-03-10T11:41:14.452Z,13.16
2019-03-10T11:44:01.632Z,13.13
2019-03-10T11:46:35.180Z,13.21
2019-03-10T11:49:12.299Z,13.34
2019-03-10T11:51:44.315Z,13.47
2019-03-10T11:54:15.390Z,13.55
2019-03-10T11:57:04.489Z,13.63
2019-03-10T11:59:51.916Z,13.66
2019-03-10T12:02:23.982Z,13.67
2019-03-10T12:04:55.903Z,13.82
2019-03-10T12:07:26.987Z,13.96
2019-03-10T12:09:56.443Z,14.06
2019-03-10T12:12:25.886Z,14.02
2019-03-10T12:14:55.343Z,14.06
2019-03-10T12:17:24.774Z,14.11
2019-03-10T12:19:54.218Z,14.12
2019-03-10T12:22:23.650Z,14.23
2019-03-10T12:24:53.089Z,14.23
2019-03-10T12:27:22.522Z,14.28
2019-03-10T12:29:51.988Z,14.50
2019-03-10T12:32:21.429Z,14.62
2019-03-10T12:34:50.867Z,14.63
2019-03-10T12:37:20.410Z,14.73
2019-03-10T12:39:49.832Z,14.77
2019-03-10T12:42:19.281Z,14.78
2019-03-10T12:44:48.720Z,14.71
2019-03-10T12:47:18.168Z,14.76
2019-03-10T12:49:47.609Z,14.71
2019-03-10T12:52:17.064Z,14.58
2019-03-10T12:54:46.495Z,14.47
2019-03-10T12:57:15.951Z,14.41
2019-03-10T12:59:45.454Z,14.35
2019-03-10T13:02:14.910Z,14.41
2019-03-10T13:04:44.519Z,14.35
2019-03-10T13:07:15.216Z,14.43
2019-03-10T13:09:44.729Z,14.49
2019-03-10T13:12:14.352Z,14.56
2019-03-10T13:14:44.005Z,14.87
2019-03-10T13:17:15.204Z,14.92
2019-03-10T13:19:44.723Z,14.99
2019-03-10T13:22:14.285Z,14.98
2019-03-10T13:24:43.786Z,15.06
2019-03-10T13:27:13.306Z,14.94
2019-03-10T13:29:42.728Z,14.96
2019-03-10T13:32:12.204Z,14.95
2019-03-10T13:34:41.649Z,14.96
2019-03-10T13:37:11.100Z,14.93
2019-03-10T13:39:40.556Z,14.96
2019-03-10T13:42:10.086Z,14.95
2019-03-10T13:44:39.529Z,14.97
2019-03-10T13:47:08.984Z,15.00
2019-03-10T13:49:38.413Z,15.09
2019-03-10T13:52:07.862Z,15.10
2019-03-10T13:54:37.302Z,15.11
2019-03-10T13:57:06.744Z,15.08
2019-03-10T13:59:36.178Z,15.15
2019-03-10T14:02:05.628Z,15.17
2019-03-10T14:04:35.063Z,15.21
2019-03-10T14:07:04.519Z,15.16
2019-03-10T14:09:33.962Z,15.24
2019-03-10T14:12:03.424Z,15.28
2019-03-10T14:14:32.861Z,15.27
2019-03-10T14:17:02.324Z,15.31
2019-03-10T14:19:31.775Z,15.35
2019-03-10T14:22:01.238Z,15.36
2019-03-10T14:24:30.680Z,15.31
2019-03-10T14:27:00.177Z,15.35
2019-03-10T14:29:29.565Z,15.27
2019-03-10T14:31:59.085Z,15.32
2019-03-10T14:34:28.518Z,15.33
2019-03-10T14:36:57.969Z,15.41
2019-03-10T14:39:27.400Z,15.29
2019-03-10T14:41:56.848Z,15.36
2019-03-10T14:44:26.301Z,15.36
2019-03-10T14:46:55.747Z,15.44
2019-03-10T14:49:25.187Z,15.53
2019-03-10T14:51:54.624Z,15.52
2019-03-10T14:54:24.086Z,15.56
2019-03-10T14:56:53.543Z,15.59
2019-03-10T14:59:22.992Z,15.71
2019-03-10T15:01:52.442Z,15.75
2019-03-10T15:04:21.896Z,15.61
2019-03-10T15:06:51.329Z,15.44
2019-03-10T15:09:20.778Z,15.27
2019-03-10T15:11:50.218Z,15.18
2019-03-10T15:14:19.673Z,15.14
2019-03-10T15:16:49.107Z,15.04
2019-03-10T15:19:18.567Z,14.96
2019-03-10T15:21:47.999Z,14.95
2019-03-10T15:24:19.211Z,14.73
2019-03-10T15:26:48.653Z,14.71
2019-03-10T15:29:18.118Z,14.51
2019-03-10T15:31:47.540Z,14.48
2019-03-10T15:34:16.981Z,14.54
2019-03-10T15:36:46.423Z,14.51
2019-03-10T15:39:15.861Z,14.38
2019-03-10T15:41:45.308Z,14.33
2019-03-10T15:44:14.760Z,14.13
2019-03-10T15:46:44.200Z,14.09
2019-03-10T15:49:13.652Z,13.98
2019-03-10T15:51:43.092Z,13.83
2019-03-10T15:54:12.553Z,13.59
2019-03-10T15:56:41.990Z,16.14
2019-03-10T15:59:11.440Z,18.71
2019-03-10T16:01:40.880Z,19.47
2019-03-10T16:04:18.764Z,20.28
2019-03-10T16:06:48.490Z,21.15
2019-03-10T16:09:17.949Z,21.78
2019-03-10T16:11:47.382Z,22.81
2019-03-10T16:14:16.836Z,23.12
2019-03-10T16:16:46.273Z,22.86
2019-03-10T16:19:15.744Z,22.68
2019-03-10T16:21:45.184Z,22.27
2019-03-10T16:24:14.621Z,18.89
2019-03-10T16:26:44.064Z,18.53
2019-03-10T16:29:13.518Z,19.07
2019-03-10T16:31:42.951Z,19.40
2019-03-10T16:34:12.419Z,17.66
2019-03-10T16:36:42.194Z,17.12
2019-03-10T16:39:11.984Z,16.43
2019-03-10T16:41:41.412Z,15.55
2019-03-10T16:44:10.863Z,14.80
2019-03-10T16:46:40.299Z,14.49
2019-03-10T16:49:09.751Z,14.19
2019-03-10T16:51:39.176Z,13.93
2019-03-10T16:54:08.623Z,13.65
2019-03-10T16:56:38.058Z,13.52
2019-03-10T16:59:07.513Z,13.34
2019-03-10T17:01:37.021Z,13.23
2019-03-10T17:04:06.473Z,13.18
2019-03-10T17:06:35.915Z,13.18
2019-03-10T17:09:17.678Z,12.98
2019-03-10T17:11:47.117Z,12.97
2019-03-10T17:14:16.560Z,12.89
2019-03-10T17:16:46.001Z,12.84
2019-03-10T17:19:15.451Z,12.79
2019-03-10T17:21:44.892Z,12.71
2019-03-10T17:24:14.347Z,12.71
2019-03-10T17:26:43.775Z,12.65
2019-03-10T17:29:13.229Z,12.56
2019-03-10T17:31:42.674Z,12.53
2019-03-10T17:34:12.160Z,12.43
2019-03-10T17:36:41.555Z,12.40
2019-03-10T17:39:11.082Z,12.32
2019-03-10T17:41:40.524Z,12.34
2019-03-10T17:44:09.970Z,12.21
2019-03-10T17:46:39.417Z,12.16
2019-03-10T17:49:09.844Z,12.06
2019-03-10T17:51:39.280Z,12.05
2019-03-10T17:54:08.709Z,12.01
2019-03-10T17:56:38.153Z,12.02
2019-03-10T17:59:07.612Z,11.94
2019-03-10T18:01:37.034Z,11.90
2019-03-10T18:04:06.523Z,11.87
2019-03-10T18:06:35.995Z,11.79
2019-03-10T18:09:07.727Z,11.81
2019-03-10T18:11:37.567Z,11.86
2019-03-10T18:14:07.011Z,11.83
2019-03-10T18:16:36.461Z,11.89
2019-03-10T18:19:05.978Z,11.84
2019-03-10T18:21:35.428Z,11.93
2019-03-10T18:24:04.864Z,11.89
2019-03-10T18:26:34.318Z,11.91
2019-03-10T18:29:03.749Z,11.84
2019-03-10T18:31:33.199Z,11.81
2019-03-10T18:34:02.630Z,11.74
2019-03-10T18:36:32.076Z,11.70
2019-03-10T18:39:01.509Z,11.64
2019-03-10T18:41:30.977Z,11.57
2019-03-10T18:44:00.412Z,11.53
2019-03-10T18:46:29.863Z,11.48
2019-03-10T18:48:59.297Z,11.44
2019-03-10T18:51:28.742Z,11.41
2019-03-10T18:53:58.184Z,11.36
2019-03-10T18:56:27.620Z,11.37
2019-03-10T18:58:57.061Z,11.37
2019-03-10T19:01:26.501Z,11.29
2019-03-10T19:03:55.935Z,10.97
2019-03-10T19:06:25.381Z,10.43
2019-03-10T19:08:54.813Z,9.96
2019-03-10T19:11:24.255Z,9.43
2019-03-10T19:13:53.683Z,9.15
2019-03-10T19:16:23.125Z,8.94
2019-03-10T19:18:52.554Z,8.73
2019-03-10T19:21:22.000Z,8.61
2019-03-10T19:23:51.436Z,8.52
2019-03-10T19:26:20.870Z,8.53
2019-03-10T19:28:50.613Z,8.55
2019-03-10T19:31:20.046Z,8.48
2019-03-10T19:33:49.469Z,8.47
2019-03-10T19:36:18.908Z,8.48
2019-03-10T19:38:48.341Z,8.42
2019-03-10T19:41:17.778Z,8.42
2019-03-10T19:43:47.207Z,8.40
2019-03-10T19:46:16.644Z,8.49
2019-03-10T19:48:46.087Z,8.45
2019-03-10T19:51:15.521Z,8.39
2019-03-10T19:53:44.952Z,8.36
2019-03-10T19:56:14.393Z,8.40
2019-03-10T19:58:43.825Z,8.40
2019-03-10T20:01:13.269Z,8.44
2019-03-10T20:03:42.694Z,8.48
2019-03-10T20:06:12.126Z,8.44
2019-03-10T20:08:41.577Z,8.43
2019-03-10T20:11:11.016Z,8.47
2019-03-10T20:13:40.463Z,8.55
2019-03-10T20:16:09.898Z,8.53
2019-03-10T20:18:39.342Z,8.47
2019-03-10T20:21:08.775Z,8.51
2019-03-10T20:23:38.220Z,8.48
2019-03-10T20:26:07.655Z,8.55
2019-03-10T20:28:37.277Z,8.54
2019-03-10T20:31:06.771Z,8.51
2019-03-10T20:33:36.231Z,8.55
2019-03-10T20:36:06.101Z,8.57
2019-03-10T20:38:35.528Z,8.52
2019-03-10T20:41:05.022Z,8.55
2019-03-10T20:43:34.466Z,8.66
2019-03-10T20:46:03.904Z,8.60
2019-03-10T20:48:33.426Z,8.62
2019-03-10T20:51:05.071Z,8.54
2019-03-10T20:53:34.120Z,8.54
2019-03-10T20:56:03.558Z,8.53
2019-03-10T20:58:34.982Z,8.53
2019-03-10T21:01:04.838Z,8.50
2019-03-10T21:03:34.292Z,8.54
2019-03-10T21:06:03.727Z,8.54
2019-03-10T21:08:33.174Z,8.47
2019-03-10T21:11:02.597Z,8.48
2019-03-10T21:13:32.044Z,8.51
2019-03-10T21:16:01.481Z,8.45
2019-03-10T21:18:30.934Z,8.40
2019-03-10T21:21:00.392Z,8.46
2019-03-10T21:23:29.843Z,8.43
2019-03-10T21:25:59.272Z,8.37
2019-03-10T21:28:28.713Z,8.31
2019-03-10T21:30:58.159Z,8.30
2019-03-10T21:33:27.608Z,8.32
2019-03-10T21:35:57.044Z,8.32
2019-03-10T21:38:26.490Z,8.25
2019-03-10T21:40:55.929Z,8.25
2019-03-10T21:43:25.380Z,8.23
2019-03-10T21:45:54.818Z,8.15
2019-03-10T21:48:24.273Z,8.19
2019-03-10T21:50:53.701Z,8.18
2019-03-10T21:53:23.142Z,8.15
2019-03-10T21:55:52.583Z,8.18
2019-03-10T21:58:22.029Z,8.23
2019-03-10T22:00:51.461Z,8.23
2019-03-10T22:03:20.897Z,8.25
2019-03-10T22:05:50.327Z,8.25
2019-03-10T22:08:19.827Z,8.20
2019-03-10T22:10:49.260Z,8.19
2019-03-10T22:13:18.709Z,8.18
2019-03-10T22:15:48.139Z,8.14
2019-03-10T22:18:17.580Z,8.16
2019-03-10T22:20:47.012Z,8.12
2019-03-10T22:23:16.458Z,8.08
2019-03-10T22:25:45.885Z,8.16
2019-03-10T22:28:15.319Z,8.14
2019-03-10T22:30:44.767Z,8.14
2019-03-10T22:33:14.202Z,8.12
2019-03-10T22:35:43.635Z,8.13
2019-03-10T22:38:15.298Z,8.10
2019-03-10T22:40:44.235Z,8.11
2019-03-10T22:43:13.677Z,8.14
2019-03-10T22:45:43.107Z,8.13
2019-03-10T22:48:12.547Z,8.14
2019-03-10T22:50:41.982Z,8.13
2019-03-10T22:53:11.427Z,8.12
2019-03-10T22:55:40.860Z,8.18
2019-03-10T22:58:10.294Z,8.18
2019-03-10T23:00:47.509Z,8.13
2019-03-10T23:03:16.951Z,8.13
2019-03-10T23:05:46.384Z,8.15
2019-03-10T23:08:15.819Z,8.13
2019-03-10T23:10:45.527Z,8.15
2019-03-10T23:13:14.961Z,8.11
2019-03-10T23:15:44.385Z,8.11
2019-03-10T23:18:13.829Z,8.12
2019-03-10T23:20:43.245Z,8.12
2019-03-10T23:23:12.684Z,8.03
2019-03-10T23:25:42.122Z,8.02
2019-03-10T23:28:11.628Z,8.03
2019-03-10T23:30:41.066Z,8.03
2019-03-10T23:33:10.685Z,8.02
2019-03-10T23:35:40.117Z,7.95
2019-03-10T23:38:09.563Z,7.83
2019-03-10T23:40:38.999Z,7.86
2019-03-10T23:43:08.433Z,7.83
2019-03-10T23:45:37.858Z,7.89
2019-03-10T23:48:07.292Z,7.79
2019-03-10T23:50:36.729Z,7.83
2019-03-10T23:53:06.157Z,7.84
2019-03-10T23:55:35.588Z,7.75
2019-03-10T23:58:05.022Z,7.71
